Reno, NV

4:56 PM PDT on August 29, 2014 (GMT -0700)
Reno - Stead | Change Station
CLOSE
Current Station
Airport
Location: Reno - Stead,
Elevation: 5049 ft
Nearby Weather Stations
Active Advisory: Fire Weather Warning

Elev 5049 ft 39.67 °N, 119.88 °W | Updated 21 minutes ago

Clear
Clear
82 °F
Feels Like 82 °F
N
17
Wind Variable Wind from West
Gusts 24 mph

Today
High -- | Low -- °F
--% Chance of Precip.
Yesterday
High -- | Low -- °F
Precip. -- in
6:24 AM 7:34 PM
Waxing Crescent, 17% visible
Pressure 30.05 in
Visibility 10.0 miles
Clouds Clear
Dew Point 34 °F
Humidity 17%
Rainfall 0.00 in
Snow Depth Not available.
UV 4 out of 12
Pollen 8.60 out of 12
Air Quality Not available.
Flu Activity Not available.
METAR KRTS 292335Z AUTO 28015G21KT 10SM CLR 28/01 A3005 RMK AO2

More Conditions Fewer Conditions

Pressure 30.05 in
Visibility 10.0 miles
Clouds Clear
Dew Point 34 °F
Humidity 17%
Rainfall 0.00 in
Snow Depth Not available.
UV 4 out of 12
Pollen 8.60 out of 12
Air Quality Not available.
Flu Activity Not available.
METAR KRTS 292335Z AUTO 28015G21KT 10SM CLR 28/01 A3005 RMK AO2

More Conditions Fewer Conditions

10-Day Weather Forecast

Almanac

Astronomy

Aug. 29, 2014 Rise Set
Actual Time 6:24 AM PDT 7:34 PM PDT
Civil Twilight 5:57 AM PDT 8:02 PM PDT
Nautical Twilight 5:23 AM PDT 8:35 PM PDT
Astronomical Twilight 4:49 AM PDT 9:09 PM PDT
Moon 10:17 AM PDT 9:36 PM PDT
Length of Visible Light 14h 05m
Length of Day
13h 09m
Tomorrow will be 2m 28s shorter.
Waxing Crescent, 17% of the Moon is Illuminated
Today
Waxing Crescent
Sep 2
First Quarter
Sep 8
Full
Sep 15
Last Quarter
Sep 24
New

Today's Extremes

State Highs State Lows

Community

WunderPhotos

Upload Photos

1,748,379 photos uploaded!

Nearby

Snow Depth

Station Depth Elevation
Sheldon 0 in 5860 ft
Lamance Creek 0 in 6000 ft
Granite Peak 0 in 7800 ft
Buckskin Lower 2 in 6700 ft
Diamond Peak 0 in 8000 ft

Earthquake Activity

City Distance Mag. Time & Date
No recent earthquake activity has been reported nearby.
Minimum magnitude displayed is 2.5.

Coastal Water Temperatures

Place Temperature
No Stations Reporting

Nearby Weather Stations